sensor_id;sensor_type;location;lat;lon;timestamp;P1;durP1;ratioP1;P2;durP2;ratioP2
60714;SDS011;46564;53.096;8.246;2023-09-12T00:01:46;43.03;;;24.92;;
60714;SDS011;46564;53.096;8.246;2023-09-12T00:06:48;44.60;;;26.50;;
60714;SDS011;46564;53.096;8.246;2023-09-12T00:11:49;48.78;;;25.90;;
60714;SDS011;46564;53.096;8.246;2023-09-12T00:16:50;42.08;;;26.90;;
60714;SDS011;46564;53.096;8.246;2023-09-12T00:21:52;43.75;;;27.27;;
60714;SDS011;46564;53.096;8.246;2023-09-12T00:26:53;42.55;;;26.67;;
60714;SDS011;46564;53.096;8.246;2023-09-12T00:31:55;44.92;;;27.23;;
60714;SDS011;46564;53.096;8.246;2023-09-12T00:36:56;42.40;;;26.33;;
60714;SDS011;46564;53.096;8.246;2023-09-12T00:41:58;47.47;;;25.63;;
60714;SDS011;46564;53.096;8.246;2023-09-12T00:46:59;42.40;;;26.00;;
60714;SDS011;46564;53.096;8.246;2023-09-12T00:52:02;42.60;;;26.05;;
60714;SDS011;46564;53.096;8.246;2023-09-12T00:57:04;42.42;;;25.90;;
60714;SDS011;46564;53.096;8.246;2023-09-12T01:02:06;45.75;;;26.70;;
60714;SDS011;46564;53.096;8.246;2023-09-12T01:07:07;45.20;;;26.88;;
60714;SDS011;46564;53.096;8.246;2023-09-12T01:12:09;42.10;;;26.38;;
60714;SDS011;46564;53.096;8.246;2023-09-12T01:17:11;44.55;;;26.42;;
60714;SDS011;46564;53.096;8.246;2023-09-12T01:27:42;47.17;;;27.58;;
60714;SDS011;46564;53.096;8.246;2023-09-12T01:32:47;47.72;;;27.92;;
60714;SDS011;46564;53.096;8.246;2023-09-12T01:37:49;43.47;;;28.48;;
60714;SDS011;46564;53.096;8.246;2023-09-12T01:42:51;50.55;;;28.70;;
60714;SDS011;46564;53.096;8.246;2023-09-12T01:47:54;46.50;;;28.05;;
60714;SDS011;46564;53.096;8.246;2023-09-12T01:52:58;48.25;;;28.13;;
60714;SDS011;46564;53.096;8.246;2023-09-12T01:58:00;48.47;;;28.60;;
60714;SDS011;46564;53.096;8.246;2023-09-12T02:03:03;47.88;;;29.33;;
60714;SDS011;46564;53.096;8.246;2023-09-12T02:08:04;51.20;;;29.38;;
60714;SDS011;46564;53.096;8.246;2023-09-12T02:13:06;43.50;;;27.75;;
60714;SDS011;46564;53.096;8.246;2023-09-12T02:18:07;49.50;;;28.80;;
60714;SDS011;46564;53.096;8.246;2023-09-12T02:23:09;52.42;;;30.13;;
60714;SDS011;46564;53.096;8.246;2023-09-12T02:28:10;47.20;;;30.48;;
60714;SDS011;46564;53.096;8.246;2023-09-12T02:33:12;53.88;;;32.15;;
60714;SDS011;46564;53.096;8.246;2023-09-12T02:38:14;58.88;;;31.85;;
60714;SDS011;46564;53.096;8.246;2023-09-12T02:43:15;57.97;;;30.90;;
60714;SDS011;46564;53.096;8.246;2023-09-12T02:48:16;55.08;;;33.03;;
60714;SDS011;46564;53.096;8.246;2023-09-12T02:53:18;60.92;;;33.20;;
60714;SDS011;46564;53.096;8.246;2023-09-12T02:58:19;53.53;;;31.90;;
60714;SDS011;46564;53.096;8.246;2023-09-12T03:03:21;52.83;;;31.65;;
60714;SDS011;46564;53.096;8.246;2023-09-12T03:08:23;55.08;;;32.10;;
60714;SDS011;46564;53.096;8.246;2023-09-12T03:13:24;59.53;;;32.58;;
60714;SDS011;46564;53.096;8.246;2023-09-12T03:18:26;53.40;;;30.65;;
60714;SDS011;46564;53.096;8.246;2023-09-12T03:23:27;55.35;;;32.88;;
60714;SDS011;46564;53.096;8.246;2023-09-12T03:28:29;48.05;;;29.60;;
60714;SDS011;46564;53.096;8.246;2023-09-12T03:33:31;53.42;;;31.33;;
60714;SDS011;46564;53.096;8.246;2023-09-12T03:38:33;53.58;;;32.65;;
60714;SDS011;46564;53.096;8.246;2023-09-12T03:43:36;52.08;;;30.73;;
60714;SDS011;46564;53.096;8.246;2023-09-12T03:48:37;50.67;;;30.05;;
60714;SDS011;46564;53.096;8.246;2023-09-12T03:53:39;55.08;;;32.30;;
60714;SDS011;46564;53.096;8.246;2023-09-12T03:58:40;53.75;;;30.08;;
60714;SDS011;46564;53.096;8.246;2023-09-12T04:03:43;58.95;;;31.33;;
60714;SDS011;46564;53.096;8.246;2023-09-12T04:08:44;49.38;;;31.48;;
60714;SDS011;46564;53.096;8.246;2023-09-12T04:13:46;53.25;;;30.48;;
60714;SDS011;46564;53.096;8.246;2023-09-12T04:18:47;51.45;;;31.33;;
60714;SDS011;46564;53.096;8.246;2023-09-12T04:28:50;49.25;;;30.50;;
60714;SDS011;46564;53.096;8.246;2023-09-12T04:33:52;56.13;;;32.17;;
60714;SDS011;46564;53.096;8.246;2023-09-12T04:38:53;58.45;;;32.47;;
60714;SDS011;46564;53.096;8.246;2023-09-12T04:43:55;54.25;;;32.25;;
60714;SDS011;46564;53.096;8.246;2023-09-12T04:48:56;51.88;;;31.85;;
60714;SDS011;46564;53.096;8.246;2023-09-12T04:53:58;60.70;;;34.10;;
60714;SDS011;46564;53.096;8.246;2023-09-12T04:58:59;56.00;;;31.70;;
60714;SDS011;46564;53.096;8.246;2023-09-12T05:04:00;110.93;;;35.30;;
60714;SDS011;46564;53.096;8.246;2023-09-12T05:09:02;147.23;;;32.70;;
60714;SDS011;46564;53.096;8.246;2023-09-12T05:14:03;74.93;;;32.13;;
60714;SDS011;46564;53.096;8.246;2023-09-12T05:19:05;81.05;;;31.10;;
60714;SDS011;46564;53.096;8.246;2023-09-12T05:24:06;51.90;;;31.13;;
60714;SDS011;46564;53.096;8.246;2023-09-12T05:29:08;59.65;;;29.90;;
60714;SDS011;46564;53.096;8.246;2023-09-12T05:34:10;85.28;;;32.63;;
60714;SDS011;46564;53.096;8.246;2023-09-12T05:39:11;96.68;;;34.17;;
60714;SDS011;46564;53.096;8.246;2023-09-12T05:44:12;51.58;;;30.73;;
60714;SDS011;46564;53.096;8.246;2023-09-12T05:49:14;79.40;;;30.98;;
60714;SDS011;46564;53.096;8.246;2023-09-12T05:54:16;48.53;;;29.80;;
60714;SDS011;46564;53.096;8.246;2023-09-12T05:59:18;48.25;;;29.58;;
60714;SDS011;46564;53.096;8.246;2023-09-12T06:04:19;57.70;;;29.83;;
60714;SDS011;46564;53.096;8.246;2023-09-12T06:09:21;46.17;;;29.05;;
60714;SDS011;46564;53.096;8.246;2023-09-12T06:14:22;49.75;;;27.58;;
60714;SDS011;46564;53.096;8.246;2023-09-12T06:19:24;45.72;;;28.42;;
60714;SDS011;46564;53.096;8.246;2023-09-12T06:24:25;45.85;;;28.27;;
60714;SDS011;46564;53.096;8.246;2023-09-12T06:29:27;51.85;;;28.52;;
60714;SDS011;46564;53.096;8.246;2023-09-12T06:34:29;45.78;;;28.55;;
60714;SDS011;46564;53.096;8.246;2023-09-12T06:39:30;45.72;;;27.27;;
60714;SDS011;46564;53.096;8.246;2023-09-12T06:44:32;44.33;;;27.92;;
60714;SDS011;46564;53.096;8.246;2023-09-12T06:49:33;43.97;;;27.70;;
60714;SDS011;46564;53.096;8.246;2023-09-12T06:54:36;46.50;;;28.88;;
60714;SDS011;46564;53.096;8.246;2023-09-12T06:59:37;47.80;;;28.05;;
60714;SDS011;46564;53.096;8.246;2023-09-12T07:04:39;46.72;;;28.70;;
60714;SDS011;46564;53.096;8.246;2023-09-12T07:09:40;49.30;;;27.30;;
60714;SDS011;46564;53.096;8.246;2023-09-12T07:14:41;45.25;;;26.08;;
60714;SDS011;46564;53.096;8.246;2023-09-12T07:19:43;43.92;;;27.45;;
60714;SDS011;46564;53.096;8.246;2023-09-12T07:24:45;46.65;;;26.45;;
60714;SDS011;46564;53.096;8.246;2023-09-12T07:29:47;47.25;;;28.15;;
60714;SDS011;46564;53.096;8.246;2023-09-12T07:34:48;45.80;;;27.30;;
60714;SDS011;46564;53.096;8.246;2023-09-12T07:39:50;46.50;;;26.83;;
60714;SDS011;46564;53.096;8.246;2023-09-12T07:44:51;43.13;;;25.77;;
60714;SDS011;46564;53.096;8.246;2023-09-12T07:49:53;45.65;;;27.42;;
60714;SDS011;46564;53.096;8.246;2023-09-12T07:55:01;50.63;;;28.73;;
60714;SDS011;46564;53.096;8.246;2023-09-12T08:00:04;48.97;;;27.83;;
60714;SDS011;46564;53.096;8.246;2023-09-12T08:05:06;46.78;;;28.13;;
60714;SDS011;46564;53.096;8.246;2023-09-12T08:10:08;50.72;;;32.17;;
60714;SDS011;46564;53.096;8.246;2023-09-12T08:15:10;48.60;;;31.38;;
60714;SDS011;46564;53.096;8.246;2023-09-12T08:20:11;42.38;;;25.00;;
60714;SDS011;46564;53.096;8.246;2023-09-12T08:25:13;42.45;;;24.45;;
60714;SDS011;46564;53.096;8.246;2023-09-12T08:30:14;44.83;;;25.52;;
60714;SDS011;46564;53.096;8.246;2023-09-12T08:35:16;43.30;;;25.65;;
60714;SDS011;46564;53.096;8.246;2023-09-12T08:40:21;45.40;;;25.58;;
60714;SDS011;46564;53.096;8.246;2023-09-12T08:45:25;45.47;;;25.60;;
60714;SDS011;46564;53.096;8.246;2023-09-12T08:50:26;44.80;;;24.58;;
60714;SDS011;46564;53.096;8.246;2023-09-12T08:55:28;48.47;;;24.10;;
60714;SDS011;46564;53.096;8.246;2023-09-12T09:00:30;45.53;;;24.33;;
60714;SDS011;46564;53.096;8.246;2023-09-12T09:05:32;37.83;;;21.17;;
60714;SDS011;46564;53.096;8.246;2023-09-12T09:10:36;38.60;;;21.77;;
60714;SDS011;46564;53.096;8.246;2023-09-12T09:16:08;36.75;;;21.23;;
60714;SDS011;46564;53.096;8.246;2023-09-12T09:21:18;35.40;;;21.10;;
60714;SDS011;46564;53.096;8.246;2023-09-12T09:26:20;34.88;;;20.17;;
60714;SDS011;46564;53.096;8.246;2023-09-12T09:31:22;41.42;;;20.60;;
60714;SDS011;46564;53.096;8.246;2023-09-12T09:36:24;33.55;;;20.40;;
60714;SDS011;46564;53.096;8.246;2023-09-12T09:41:26;34.45;;;20.38;;
60714;SDS011;46564;53.096;8.246;2023-09-12T09:46:27;32.33;;;18.98;;
60714;SDS011;46564;53.096;8.246;2023-09-12T09:51:29;32.83;;;18.52;;
60714;SDS011;46564;53.096;8.246;2023-09-12T09:56:31;31.92;;;18.65;;
60714;SDS011;46564;53.096;8.246;2023-09-12T10:01:45;32.10;;;18.25;;
60714;SDS011;46564;53.096;8.246;2023-09-12T10:06:47;28.98;;;17.17;;
60714;SDS011;46564;53.096;8.246;2023-09-12T10:11:50;28.42;;;17.90;;
60714;SDS011;46564;53.096;8.246;2023-09-12T10:16:56;33.67;;;17.63;;
60714;SDS011;46564;53.096;8.246;2023-09-12T10:22:09;27.27;;;16.85;;
60714;SDS011;46564;53.096;8.246;2023-09-12T10:27:18;32.03;;;18.90;;
60714;SDS011;46564;53.096;8.246;2023-09-12T10:32:20;29.98;;;18.70;;
60714;SDS011;46564;53.096;8.246;2023-09-12T10:37:22;29.83;;;17.00;;
60714;SDS011;46564;53.096;8.246;2023-09-12T10:42:27;37.63;;;19.67;;
60714;SDS011;46564;53.096;8.246;2023-09-12T10:47:28;28.48;;;18.15;;
60714;SDS011;46564;53.096;8.246;2023-09-12T10:52:30;29.88;;;17.60;;
60714;SDS011;46564;53.096;8.246;2023-09-12T10:57:32;26.15;;;16.42;;
60714;SDS011;46564;53.096;8.246;2023-09-12T11:02:34;29.00;;;16.92;;
60714;SDS011;46564;53.096;8.246;2023-09-12T11:12:39;26.40;;;16.70;;
60714;SDS011;46564;53.096;8.246;2023-09-12T11:17:41;25.98;;;15.80;;
60714;SDS011;46564;53.096;8.246;2023-09-12T11:22:44;29.05;;;16.33;;
60714;SDS011;46564;53.096;8.246;2023-09-12T11:32:53;23.38;;;13.32;;
60714;SDS011;46564;53.096;8.246;2023-09-12T11:37:56;22.77;;;13.85;;
60714;SDS011;46564;53.096;8.246;2023-09-12T11:42:59;24.48;;;13.10;;
60714;SDS011;46564;53.096;8.246;2023-09-12T11:48:02;23.98;;;13.30;;
60714;SDS011;46564;53.096;8.246;2023-09-12T11:53:05;22.23;;;13.60;;
60714;SDS011;46564;53.096;8.246;2023-09-12T11:58:08;21.30;;;12.25;;
60714;SDS011;46564;53.096;8.246;2023-09-12T12:03:09;22.45;;;12.05;;
60714;SDS011;46564;53.096;8.246;2023-09-12T12:08:11;20.85;;;11.90;;
60714;SDS011;46564;53.096;8.246;2023-09-12T12:13:32;17.65;;;9.82;;
60714;SDS011;46564;53.096;8.246;2023-09-12T12:18:34;18.85;;;10.77;;
60714;SDS011;46564;53.096;8.246;2023-09-12T12:23:35;16.88;;;10.38;;
60714;SDS011;46564;53.096;8.246;2023-09-12T12:28:37;18.80;;;10.63;;
60714;SDS011;46564;53.096;8.246;2023-09-12T12:33:39;25.83;;;12.45;;
60714;SDS011;46564;53.096;8.246;2023-09-12T12:39:00;14.75;;;8.75;;
60714;SDS011;46564;53.096;8.246;2023-09-12T12:44:02;19.33;;;10.68;;
60714;SDS011;46564;53.096;8.246;2023-09-12T12:49:04;17.17;;;10.45;;
60714;SDS011;46564;53.096;8.246;2023-09-12T12:54:06;16.55;;;10.93;;
60714;SDS011;46564;53.096;8.246;2023-09-12T12:59:07;16.88;;;9.82;;
60714;SDS011;46564;53.096;8.246;2023-09-12T13:04:09;18.38;;;10.93;;
60714;SDS011;46564;53.096;8.246;2023-09-12T13:09:11;20.90;;;11.48;;
60714;SDS011;46564;53.096;8.246;2023-09-12T13:14:13;19.42;;;10.52;;
60714;SDS011;46564;53.096;8.246;2023-09-12T13:19:14;21.90;;;11.63;;
60714;SDS011;46564;53.096;8.246;2023-09-12T13:24:15;20.23;;;11.73;;
60714;SDS011;46564;53.096;8.246;2023-09-12T13:29:17;21.23;;;11.85;;
60714;SDS011;46564;53.096;8.246;2023-09-12T13:34:18;17.17;;;10.07;;
60714;SDS011;46564;53.096;8.246;2023-09-12T13:39:20;17.77;;;9.68;;
60714;SDS011;46564;53.096;8.246;2023-09-12T13:44:21;18.65;;;9.85;;
60714;SDS011;46564;53.096;8.246;2023-09-12T13:49:23;18.45;;;9.80;;
60714;SDS011;46564;53.096;8.246;2023-09-12T13:54:24;15.57;;;7.45;;
60714;SDS011;46564;53.096;8.246;2023-09-12T13:59:25;14.75;;;8.48;;
60714;SDS011;46564;53.096;8.246;2023-09-12T14:04:38;18.23;;;9.18;;
60714;SDS011;46564;53.096;8.246;2023-09-12T14:09:40;12.15;;;6.32;;
60714;SDS011;46564;53.096;8.246;2023-09-12T14:14:41;15.10;;;7.75;;
60714;SDS011;46564;53.096;8.246;2023-09-12T14:19:50;14.02;;;7.43;;
60714;SDS011;46564;53.096;8.246;2023-09-12T14:24:53;15.95;;;7.80;;
60714;SDS011;46564;53.096;8.246;2023-09-12T14:29:54;18.30;;;8.20;;
60714;SDS011;46564;53.096;8.246;2023-09-12T14:34:56;16.30;;;8.80;;
60714;SDS011;46564;53.096;8.246;2023-09-12T14:39:57;17.25;;;8.70;;
60714;SDS011;46564;53.096;8.246;2023-09-12T14:44:58;16.70;;;8.63;;
60714;SDS011;46564;53.096;8.246;2023-09-12T14:50:00;15.68;;;8.57;;
60714;SDS011;46564;53.096;8.246;2023-09-12T14:55:02;18.67;;;9.93;;
60714;SDS011;46564;53.096;8.246;2023-09-12T15:00:03;13.77;;;7.28;;
60714;SDS011;46564;53.096;8.246;2023-09-12T15:05:06;14.88;;;7.60;;
60714;SDS011;46564;53.096;8.246;2023-09-12T15:10:07;12.90;;;6.40;;
60714;SDS011;46564;53.096;8.246;2023-09-12T15:15:09;12.32;;;6.75;;
60714;SDS011;46564;53.096;8.246;2023-09-12T15:20:11;12.45;;;6.72;;
60714;SDS011;46564;53.096;8.246;2023-09-12T15:25:12;11.73;;;6.38;;
60714;SDS011;46564;53.096;8.246;2023-09-12T15:30:14;20.85;;;7.88;;
60714;SDS011;46564;53.096;8.246;2023-09-12T15:35:15;14.77;;;6.22;;
60714;SDS011;46564;53.096;8.246;2023-09-12T15:40:17;15.57;;;7.78;;
60714;SDS011;46564;53.096;8.246;2023-09-12T15:45:18;17.02;;;8.35;;
60714;SDS011;46564;53.096;8.246;2023-09-12T15:50:20;18.60;;;8.23;;
60714;SDS011;46564;53.096;8.246;2023-09-12T15:55:21;11.80;;;6.40;;
60714;SDS011;46564;53.096;8.246;2023-09-12T16:00:22;12.38;;;6.32;;
60714;SDS011;46564;53.096;8.246;2023-09-12T16:05:24;11.38;;;6.25;;
60714;SDS011;46564;53.096;8.246;2023-09-12T16:10:25;13.80;;;6.25;;
60714;SDS011;46564;53.096;8.246;2023-09-12T16:15:27;12.43;;;7.57;;
60714;SDS011;46564;53.096;8.246;2023-09-12T16:20:28;14.82;;;7.38;;
60714;SDS011;46564;53.096;8.246;2023-09-12T16:25:30;14.90;;;7.43;;
60714;SDS011;46564;53.096;8.246;2023-09-12T16:30:31;14.95;;;7.65;;
60714;SDS011;46564;53.096;8.246;2023-09-12T16:35:32;12.25;;;6.65;;
60714;SDS011;46564;53.096;8.246;2023-09-12T16:40:36;10.63;;;6.13;;
60714;SDS011;46564;53.096;8.246;2023-09-12T16:45:38;12.77;;;6.05;;
60714;SDS011;46564;53.096;8.246;2023-09-12T16:50:39;20.05;;;6.45;;
60714;SDS011;46564;53.096;8.246;2023-09-12T16:55:41;12.38;;;6.40;;
60714;SDS011;46564;53.096;8.246;2023-09-12T17:00:42;11.80;;;6.72;;
60714;SDS011;46564;53.096;8.246;2023-09-12T17:05:45;12.85;;;7.00;;
60714;SDS011;46564;53.096;8.246;2023-09-12T17:10:46;14.13;;;7.15;;
60714;SDS011;46564;53.096;8.246;2023-09-12T17:15:48;13.70;;;7.07;;
60714;SDS011;46564;53.096;8.246;2023-09-12T17:20:49;9.52;;;5.53;;
60714;SDS011;46564;53.096;8.246;2023-09-12T17:25:51;14.18;;;6.85;;
60714;SDS011;46564;53.096;8.246;2023-09-12T17:30:52;11.77;;;6.00;;
60714;SDS011;46564;53.096;8.246;2023-09-12T17:35:54;10.07;;;5.78;;
60714;SDS011;46564;53.096;8.246;2023-09-12T17:40:55;16.13;;;6.20;;
60714;SDS011;46564;53.096;8.246;2023-09-12T17:45:56;13.52;;;5.95;;
60714;SDS011;46564;53.096;8.246;2023-09-12T17:51:11;12.07;;;5.85;;
60714;SDS011;46564;53.096;8.246;2023-09-12T17:56:12;31.70;;;6.90;;
60714;SDS011;46564;53.096;8.246;2023-09-12T18:01:14;12.02;;;7.00;;
60714;SDS011;46564;53.096;8.246;2023-09-12T18:06:17;14.63;;;7.63;;
60714;SDS011;46564;53.096;8.246;2023-09-12T18:11:20;15.73;;;8.77;;
60714;SDS011;46564;53.096;8.246;2023-09-12T18:16:21;21.70;;;9.10;;
60714;SDS011;46564;53.096;8.246;2023-09-12T18:21:23;15.75;;;8.80;;
60714;SDS011;46564;53.096;8.246;2023-09-12T18:26:24;16.65;;;9.55;;
60714;SDS011;46564;53.096;8.246;2023-09-12T18:31:26;19.20;;;10.40;;
60714;SDS011;46564;53.096;8.246;2023-09-12T18:36:27;18.48;;;9.88;;
60714;SDS011;46564;53.096;8.246;2023-09-12T18:41:29;20.60;;;9.98;;
60714;SDS011;46564;53.096;8.246;2023-09-12T18:46:31;17.25;;;9.85;;
60714;SDS011;46564;53.096;8.246;2023-09-12T18:51:33;15.05;;;9.13;;
60714;SDS011;46564;53.096;8.246;2023-09-12T18:56:35;17.40;;;8.63;;
60714;SDS011;46564;53.096;8.246;2023-09-12T19:01:36;24.92;;;9.85;;
60714;SDS011;46564;53.096;8.246;2023-09-12T19:06:38;24.70;;;9.43;;
60714;SDS011;46564;53.096;8.246;2023-09-12T19:11:39;19.83;;;8.73;;
60714;SDS011;46564;53.096;8.246;2023-09-12T19:16:41;22.70;;;8.93;;
60714;SDS011;46564;53.096;8.246;2023-09-12T19:21:43;16.48;;;8.50;;
60714;SDS011;46564;53.096;8.246;2023-09-12T19:26:45;17.83;;;8.05;;
60714;SDS011;46564;53.096;8.246;2023-09-12T19:31:47;20.98;;;8.35;;
60714;SDS011;46564;53.096;8.246;2023-09-12T19:36:50;25.63;;;7.90;;
60714;SDS011;46564;53.096;8.246;2023-09-12T19:41:52;18.50;;;7.68;;
60714;SDS011;46564;53.096;8.246;2023-09-12T19:46:54;16.88;;;8.25;;
60714;SDS011;46564;53.096;8.246;2023-09-12T19:51:56;15.38;;;8.65;;
60714;SDS011;46564;53.096;8.246;2023-09-12T19:56:57;15.25;;;7.72;;
60714;SDS011;46564;53.096;8.246;2023-09-12T20:01:59;21.55;;;8.70;;
60714;SDS011;46564;53.096;8.246;2023-09-12T20:07:01;25.83;;;8.50;;
60714;SDS011;46564;53.096;8.246;2023-09-12T20:12:03;15.07;;;7.78;;
60714;SDS011;46564;53.096;8.246;2023-09-12T20:17:05;44.00;;;9.18;;
60714;SDS011;46564;53.096;8.246;2023-09-12T20:22:06;15.60;;;7.85;;
60714;SDS011;46564;53.096;8.246;2023-09-12T20:27:08;16.10;;;7.95;;
60714;SDS011;46564;53.096;8.246;2023-09-12T20:32:09;18.45;;;7.78;;
60714;SDS011;46564;53.096;8.246;2023-09-12T20:37:11;15.65;;;7.70;;
60714;SDS011;46564;53.096;8.246;2023-09-12T20:42:12;23.77;;;8.63;;
60714;SDS011;46564;53.096;8.246;2023-09-12T20:47:14;17.50;;;8.23;;
60714;SDS011;46564;53.096;8.246;2023-09-12T20:52:15;15.68;;;7.90;;
60714;SDS011;46564;53.096;8.246;2023-09-12T20:57:17;18.73;;;8.98;;
60714;SDS011;46564;53.096;8.246;2023-09-12T21:02:19;16.92;;;9.32;;
60714;SDS011;46564;53.096;8.246;2023-09-12T21:07:20;28.55;;;9.50;;
60714;SDS011;46564;53.096;8.246;2023-09-12T21:12:22;29.00;;;10.98;;
60714;SDS011;46564;53.096;8.246;2023-09-12T21:17:24;19.70;;;10.70;;
60714;SDS011;46564;53.096;8.246;2023-09-12T21:22:27;21.40;;;11.63;;
60714;SDS011;46564;53.096;8.246;2023-09-12T21:27:28;19.27;;;11.48;;
60714;SDS011;46564;53.096;8.246;2023-09-12T21:32:30;24.88;;;13.30;;
60714;SDS011;46564;53.096;8.246;2023-09-12T21:37:31;25.38;;;13.13;;
60714;SDS011;46564;53.096;8.246;2023-09-12T21:42:33;23.70;;;14.07;;
60714;SDS011;46564;53.096;8.246;2023-09-12T21:47:36;23.58;;;13.88;;
60714;SDS011;46564;53.096;8.246;2023-09-12T21:52:38;29.90;;;14.68;;
60714;SDS011;46564;53.096;8.246;2023-09-12T21:57:40;29.10;;;16.77;;
60714;SDS011;46564;53.096;8.246;2023-09-12T22:02:41;27.95;;;16.13;;
60714;SDS011;46564;53.096;8.246;2023-09-12T22:07:43;30.70;;;16.05;;
60714;SDS011;46564;53.096;8.246;2023-09-12T22:12:45;37.78;;;16.20;;
60714;SDS011;46564;53.096;8.246;2023-09-12T22:17:46;34.60;;;16.55;;
60714;SDS011;46564;53.096;8.246;2023-09-12T22:22:48;33.90;;;18.35;;
60714;SDS011;46564;53.096;8.246;2023-09-12T22:27:50;29.92;;;17.80;;
60714;SDS011;46564;53.096;8.246;2023-09-12T22:32:51;31.38;;;17.58;;
60714;SDS011;46564;53.096;8.246;2023-09-12T22:37:52;31.85;;;16.45;;
60714;SDS011;46564;53.096;8.246;2023-09-12T22:42:54;30.10;;;16.17;;
60714;SDS011;46564;53.096;8.246;2023-09-12T22:47:56;32.97;;;17.50;;
60714;SDS011;46564;53.096;8.246;2023-09-12T22:52:57;31.58;;;18.00;;
60714;SDS011;46564;53.096;8.246;2023-09-12T22:57:59;32.63;;;17.48;;
60714;SDS011;46564;53.096;8.246;2023-09-12T23:03:00;30.95;;;16.15;;
60714;SDS011;46564;53.096;8.246;2023-09-12T23:08:02;34.10;;;17.73;;
60714;SDS011;46564;53.096;8.246;2023-09-12T23:13:04;31.83;;;17.13;;
60714;SDS011;46564;53.096;8.246;2023-09-12T23:18:06;29.33;;;16.50;;
60714;SDS011;46564;53.096;8.246;2023-09-12T23:23:07;29.38;;;17.60;;
60714;SDS011;46564;53.096;8.246;2023-09-12T23:28:09;35.58;;;17.05;;
60714;SDS011;46564;53.096;8.246;2023-09-12T23:33:10;28.35;;;16.20;;
60714;SDS011;46564;53.096;8.246;2023-09-12T23:38:12;30.20;;;15.95;;
60714;SDS011;46564;53.096;8.246;2023-09-12T23:43:14;31.58;;;16.27;;
60714;SDS011;46564;53.096;8.246;2023-09-12T23:48:16;24.05;;;14.55;;
60714;SDS011;46564;53.096;8.246;2023-09-12T23:53:17;27.08;;;15.48;;
60714;SDS011;46564;53.096;8.246;2023-09-12T23:58:19;33.80;;;16.75;;
